Time;durP1;ratioP1;P1;durP2;ratioP2;P2;SDS_P1;SDS_P2;PMS_P1;PMS_P2;Temp;Humidity;BMP_temperature;BMP_pressure;BME280_temperature;BME280_humidity;BME280_pressure;Samples;Min_cycle;Max_cycle;Signal;HPM_P1;HPM_P2
2022/04/24 00:00:57;;;;;;;10.32;7.72;;;12.90;99.90;;;;;;7394530;19;20135;-82
2022/04/24 00:03:23;;;;;;;12.47;8.40;;;12.90;99.90;;;;;;7397989;19;20130;-85
2022/04/24 00:05:49;;;;;;;10.00;8.00;;;12.90;99.90;;;;;;7393977;19;20139;-83
2022/04/24 00:08:15;;;;;;;12.70;7.90;;;12.50;99.90;;;;;;7408420;19;20154;-84
2022/04/24 00:10:40;;;;;;;10.38;7.82;;;12.40;99.90;;;;;;7407269;19;20154;-82
2022/04/24 00:13:06;;;;;;;10.23;7.20;;;12.20;99.90;;;;;;7400218;19;20153;-83
2022/04/24 00:15:32;;;;;;;11.13;7.82;;;12.30;99.90;;;;;;7413650;19;20138;-81
2022/04/24 00:17:58;;;;;;;11.87;8.17;;;12.70;99.90;;;;;;7393659;19;20166;-82
2022/04/24 00:20:24;;;;;;;9.57;7.53;;;12.70;99.90;;;;;;7391880;19;20215;-82
2022/04/24 00:22:50;;;;;;;12.38;8.73;;;12.80;99.90;;;;;;7391994;19;20670;-84
2022/04/24 00:25:16;;;;;;;9.80;7.45;;;12.90;99.90;;;;;;7395315;19;20145;-83
2022/04/24 00:27:41;;;;;;;10.07;7.33;;;12.70;99.90;;;;;;7394117;19;20470;-81
2022/04/24 00:30:08;;;;;;;11.07;7.90;;;13.00;99.90;;;;;;7390957;19;20182;-83
2022/04/24 00:32:34;;;;;;;9.30;7.23;;;13.10;99.90;;;;;;7392863;19;20126;-83
2022/04/24 00:34:59;;;;;;;11.23;8.07;;;13.00;99.90;;;;;;7395528;19;20198;-83
2022/04/24 00:37:25;;;;;;;11.80;7.72;;;13.10;99.90;;;;;;7394351;19;20138;-82
2022/04/24 00:39:51;;;;;;;12.03;8.57;;;13.10;99.90;;;;;;7396231;19;20143;-83
2022/04/24 00:42:18;;;;;;;10.23;7.90;;;13.20;99.90;;;;;;7391880;19;20485;-83
2022/04/24 00:44:44;;;;;;;10.67;7.50;;;13.30;99.90;;;;;;7390834;19;20161;-84
2022/04/24 00:47:15;;;;;;;9.57;7.80;;;13.30;99.90;;;;;;7391089;19;20126;-83
2022/04/24 00:49:42;;;;;;;10.67;8.10;;;13.10;99.90;;;;;;7389707;19;20131;-84
2022/04/24 00:52:09;;;;;;;9.77;6.87;;;13.20;99.90;;;;;;7392591;19;20133;-83
2022/04/24 00:54:35;;;;;;;11.70;7.85;;;13.10;99.90;;;;;;7397012;19;20134;-83
2022/04/24 00:57:02;;;;;;;10.83;8.03;;;12.80;99.90;;;;;;7397094;19;20601;-85
2022/04/24 00:59:28;;;;;;;11.35;7.47;;;12.90;99.90;;;;;;7399912;19;20161;-86
2022/04/24 01:01:54;;;;;;;9.13;7.20;;;13.00;99.90;;;;;;7396833;19;20127;-86
2022/04/24 01:04:19;;;;;;;9.65;7.93;;;13.20;99.90;;;;;;7395102;19;20161;-85
2022/04/24 01:06:46;;;;;;;9.93;7.80;;;13.00;99.90;;;;;;7393828;19;20229;-88
2022/04/24 01:09:20;;;;;;;8.47;6.67;;;13.00;99.90;;;;;;7391485;19;20570;-84
2022/04/24 01:11:52;;;;;;;10.37;8.03;;;13.00;99.90;;;;;;7392053;19;20125;-83
2022/04/24 01:14:19;;;;;;;9.30;7.57;;;12.90;99.90;;;;;;7402088;19;20178;-82
2022/04/24 01:16:46;;;;;;;10.05;7.90;;;13.00;99.90;;;;;;7398422;19;20242;-84
2022/04/24 01:19:13;;;;;;;10.10;7.90;;;13.00;99.90;;;;;;7396883;19;20138;-83
2022/04/24 01:21:44;;;;;;;9.57;7.87;;;12.90;99.90;;;;;;7390362;19;20732;-82
2022/04/24 01:24:10;;;;;;;9.57;7.20;;;13.00;99.90;;;;;;7396288;19;20878;-84
2022/04/24 01:26:36;;;;;;;11.20;8.07;;;13.10;99.90;;;;;;7390084;19;20130;-84
2022/04/24 01:29:04;;;;;;;12.10;8.07;;;13.10;99.90;;;;;;7389928;19;20154;-85
2022/04/24 01:31:31;;;;;;;9.88;7.22;;;13.30;99.90;;;;;;7389692;19;20139;-85
2022/04/24 01:33:57;;;;;;;9.63;7.40;;;13.30;99.90;;;;;;7390799;19;20473;-82
2022/04/24 01:36:23;;;;;;;10.10;7.68;;;13.30;99.90;;;;;;7402001;19;20123;-82
2022/04/24 01:38:49;;;;;;;10.20;8.00;;;13.10;99.90;;;;;;7396361;19;20134;-84
2022/04/24 01:41:15;;;;;;;10.60;8.07;;;13.10;99.90;;;;;;7388789;19;20576;-82
2022/04/24 01:43:42;;;;;;;9.67;7.47;;;12.90;99.90;;;;;;7389401;19;20150;-81
2022/04/24 01:46:09;;;;;;;9.23;7.37;;;13.20;99.90;;;;;;7394100;19;20188;-82
2022/04/24 01:48:36;;;;;;;12.55;7.30;;;13.20;99.90;;;;;;7392953;19;20134;-82
2022/04/24 01:51:03;;;;;;;9.83;7.67;;;13.20;99.90;;;;;;7389844;19;20701;-83
2022/04/24 01:53:29;;;;;;;8.95;6.82;;;13.30;99.90;;;;;;7389351;19;20126;-82
2022/04/24 01:56:00;;;;;;;10.00;7.70;;;13.00;99.90;;;;;;7389410;19;20146;-83
2022/04/24 01:58:26;;;;;;;8.05;6.43;;;13.00;99.90;;;;;;7388709;19;20127;-82
2022/04/24 02:00:54;;;;;;;10.98;7.85;;;13.00;99.90;;;;;;7400361;19;20123;-83
2022/04/24 02:03:21;;;;;;;9.45;7.40;;;13.00;99.90;;;;;;7404559;19;20151;-81
2022/04/24 02:05:47;;;;;;;10.13;7.45;;;13.10;99.90;;;;;;7398172;19;20133;-82
2022/04/24 02:08:14;;;;;;;10.25;7.95;;;13.30;99.90;;;;;;7395667;19;20194;-81
2022/04/24 02:10:41;;;;;;;9.88;7.55;;;13.20;99.90;;;;;;7400592;19;20582;-83
2022/04/24 02:13:07;;;;;;;10.10;7.28;;;13.30;99.90;;;;;;7395672;19;20495;-82
2022/04/24 02:15:33;;;;;;;10.27;8.03;;;13.40;99.90;;;;;;7396064;19;20492;-82
2022/04/24 02:18:00;;;;;;;11.73;8.27;;;13.50;99.90;;;;;;7396672;19;20151;-84
2022/04/24 02:20:25;;;;;;;13.43;8.77;;;13.50;99.90;;;;;;7399310;19;20145;-82
2022/04/24 02:22:51;;;;;;;12.13;8.00;;;13.50;99.90;;;;;;7396801;19;20625;-83
2022/04/24 02:25:17;;;;;;;11.40;8.07;;;13.40;99.90;;;;;;7395934;19;20146;-84
2022/04/24 02:27:44;;;;;;;12.60;8.13;;;13.50;99.90;;;;;;7397760;19;20134;-84
2022/04/24 02:30:13;;;;;;;10.47;7.73;;;13.30;99.90;;;;;;7398200;19;20134;-83
2022/04/24 02:32:39;;;;;;;10.63;8.40;;;13.20;99.90;;;;;;7397730;19;20574;-85
2022/04/24 02:35:05;;;;;;;11.53;8.60;;;13.30;99.90;;;;;;7396192;19;20137;-84
2022/04/24 02:37:32;;;;;;;13.23;9.30;;;13.40;99.90;;;;;;7396655;19;20130;-84
2022/04/24 02:39:59;;;;;;;11.67;8.10;;;13.40;99.90;;;;;;7399521;19;20123;-84
2022/04/24 02:42:25;;;;;;;10.60;8.40;;;13.30;99.90;;;;;;7400850;19;20146;-83
2022/04/24 02:44:51;;;;;;;12.38;8.90;;;13.10;99.90;;;;;;7395111;19;20970;-83
2022/04/24 02:47:16;;;;;;;11.30;8.00;;;13.10;99.90;;;;;;7394596;19;20598;-83
2022/04/24 02:49:42;;;;;;;11.02;8.38;;;13.10;99.90;;;;;;7394954;19;20477;-82
2022/04/24 02:52:08;;;;;;;11.47;8.23;;;13.10;99.90;;;;;;7395706;19;20210;-83
2022/04/24 02:54:34;;;;;;;11.67;8.70;;;13.20;99.90;;;;;;7399300;19;20146;-83
2022/04/24 02:57:00;;;;;;;12.13;9.07;;;13.20;99.90;;;;;;7398036;19;20143;-82
2022/04/24 02:59:26;;;;;;;12.87;9.00;;;13.20;99.90;;;;;;7395456;19;20160;-84
2022/04/24 03:01:54;;;;;;;12.35;8.57;;;13.00;99.90;;;;;;7393532;19;20135;-85
2022/04/24 03:04:20;;;;;;;14.57;9.70;;;13.10;99.90;;;;;;7394805;19;20479;-84
2022/04/24 03:06:46;;;;;;;12.43;9.60;;;13.00;99.90;;;;;;7397756;19;20162;-82
2022/04/24 03:09:12;;;;;;;13.03;9.20;;;13.00;99.90;;;;;;7398280;19;20127;-84
2022/04/24 03:11:37;;;;;;;12.23;8.57;;;12.90;99.90;;;;;;7392689;19;20184;-85
2022/04/24 03:14:03;;;;;;;12.10;9.17;;;12.80;99.90;;;;;;7396157;19;20131;-83
2022/04/24 03:16:29;;;;;;;12.52;8.63;;;12.90;99.90;;;;;;7397191;19;20198;-84
2022/04/24 03:18:55;;;;;;;12.00;8.82;;;12.90;99.90;;;;;;7393497;19;20154;-81
2022/04/24 03:21:20;;;;;;;11.88;9.15;;;12.80;99.90;;;;;;7394246;19;20143;-82
2022/04/24 03:24:03;;;;;;;12.40;9.05;;;12.70;99.90;;;;;;7395007;19;20151;-81
2022/04/24 03:26:28;;;;;;;13.63;9.57;;;12.80;99.90;;;;;;7396706;19;20263;-84
2022/04/24 03:28:56;;;;;;;11.57;8.27;;;12.80;99.90;;;;;;7398533;19;20166;-84
2022/04/24 03:31:23;;;;;;;11.10;8.25;;;12.90;99.90;;;;;;7395508;19;20653;-82
2022/04/24 03:33:52;;;;;;;10.57;8.17;;;12.60;99.90;;;;;;7393349;19;20729;-84
2022/04/24 03:36:20;;;;;;;12.97;8.20;;;12.50;99.90;;;;;;7394901;19;20141;-83
2022/04/24 03:38:46;;;;;;;11.45;8.15;;;12.40;99.90;;;;;;7397367;19;20140;-82
2022/04/24 03:41:12;;;;;;;12.68;7.90;;;12.60;99.90;;;;;;7396754;19;20206;-83
2022/04/24 03:43:38;;;;;;;11.55;7.72;;;12.40;99.90;;;;;;7392459;19;20187;-82
2022/04/24 03:46:07;;;;;;;11.07;7.90;;;12.50;99.90;;;;;;7392804;19;20127;-82
2022/04/24 03:48:34;;;;;;;9.30;7.20;;;12.50;99.90;;;;;;7394624;19;20130;-82
2022/04/24 03:51:01;;;;;;;9.82;7.93;;;12.70;99.90;;;;;;7395943;19;20147;-83
2022/04/24 03:53:27;;;;;;;11.07;8.40;;;12.90;99.90;;;;;;7398080;19;20156;-81
2022/04/24 03:55:52;;;;;;;10.60;8.20;;;13.00;99.90;;;;;;7392228;19;20137;-82
2022/04/24 03:58:18;;;;;;;10.93;8.30;;;13.00;99.90;;;;;;7393214;19;20198;-81
2022/04/24 04:00:44;;;;;;;10.05;7.80;;;12.80;99.90;;;;;;7398595;19;20138;-82
2022/04/24 04:03:10;;;;;;;10.18;8.07;;;13.00;99.90;;;;;;7392702;19;20127;-80
2022/04/24 04:05:37;;;;;;;11.93;8.30;;;13.00;99.90;;;;;;7390317;19;20134;-81
2022/04/24 04:08:03;;;;;;;13.20;9.83;;;13.00;99.90;;;;;;7394632;19;20141;-84
2022/04/24 04:10:30;;;;;;;12.77;9.50;;;13.00;99.90;;;;;;7395925;19;20125;-85
2022/04/24 04:12:55;;;;;;;12.27;9.13;;;13.00;99.90;;;;;;7393909;19;20135;-85
2022/04/24 04:15:21;;;;;;;12.97;9.63;;;13.10;99.90;;;;;;7391820;19;20162;-82
2022/04/24 04:17:48;;;;;;;12.68;8.95;;;13.00;99.90;;;;;;7391731;19;20137;-84
2022/04/24 04:20:14;;;;;;;13.83;9.47;;;12.90;99.90;;;;;;7391573;19;20126;-83
2022/04/24 04:22:51;;;;;;;13.10;9.57;;;12.80;99.90;;;;;;7405449;19;20524;-84
2022/04/24 04:25:21;;;;;;;12.10;9.67;;;12.80;99.90;;;;;;7391337;19;20193;-83
2022/04/24 04:27:47;;;;;;;12.70;9.63;;;12.70;99.90;;;;;;7393285;19;20494;-83
2022/04/24 04:30:14;;;;;;;13.10;9.40;;;12.60;99.90;;;;;;7389096;19;20484;-82
2022/04/24 04:32:40;;;;;;;12.40;9.43;;;12.70;99.90;;;;;;7391490;19;20161;-84
2022/04/24 04:35:09;;;;;;;14.40;9.83;;;12.60;99.90;;;;;;7397057;19;20178;-84
2022/04/24 04:37:39;;;;;;;14.30;10.18;;;12.60;99.90;;;;;;7393873;19;20130;-84
2022/04/24 04:40:07;;;;;;;13.53;9.50;;;12.50;99.90;;;;;;7391946;19;20142;-82
2022/04/24 04:42:33;;;;;;;13.40;9.43;;;12.50;99.90;;;;;;7388411;19;20127;-82
2022/04/24 04:45:00;;;;;;;14.67;9.67;;;12.40;99.90;;;;;;7390666;19;20229;-82
2022/04/24 04:47:29;;;;;;;7.63;6.17;;;12.20;99.90;;;;;;7390746;19;20486;-82
2022/04/24 04:49:56;;;;;;;6.03;4.50;;;11.90;99.90;;;;;;7391529;19;20605;-83
2022/04/24 04:52:23;;;;;;;7.07;4.40;;;11.70;99.90;;;;;;7391225;19;20470;-81
2022/04/24 04:54:49;;;;;;;4.30;3.20;;;11.50;99.90;;;;;;7395322;19;20138;-82
2022/04/24 04:57:16;;;;;;;3.37;2.67;;;11.50;99.90;;;;;;7392697;19;20145;-81
2022/04/24 04:59:42;;;;;;;2.97;2.10;;;11.10;99.90;;;;;;7389010;19;20234;-82
2022/04/24 05:02:08;;;;;;;1.87;1.50;;;11.20;99.90;;;;;;7388032;19;20135;-80
2022/04/24 05:04:35;;;;;;;1.63;1.30;;;10.80;99.90;;;;;;7393914;19;20143;-80
2022/04/24 05:07:00;;;;;;;2.57;1.40;;;11.00;99.90;;;;;;7387657;19;20198;-82
2022/04/24 05:09:27;;;;;;;1.07;0.97;;;11.10;99.90;;;;;;7395399;19;20615;-81
2022/04/24 05:11:53;;;;;;;3.27;1.03;;;11.20;99.90;;;;;;7390789;19;20135;-78
2022/04/24 05:14:19;;;;;;;0.83;0.80;;;11.20;99.90;;;;;;7390118;19;20656;-80
2022/04/24 05:16:45;;;;;;;2.60;0.70;;;11.10;99.90;;;;;;7393862;19;20147;-79
2022/04/24 05:19:11;;;;;;;4.90;0.60;;;11.00;99.90;;;;;;7388504;19;20144;-80
2022/04/24 05:21:38;;;;;;;1.60;0.50;;;10.80;99.90;;;;;;7388976;19;20142;-80
2022/04/24 05:24:04;;;;;;;1.50;0.70;;;10.70;99.90;;;;;;7388288;19;20673;-80
2022/04/24 05:26:31;;;;;;;1.90;0.50;;;10.60;99.90;;;;;;7388839;19;20159;-79
2022/04/24 05:28:57;;;;;;;1.00;0.50;;;10.60;99.90;;;;;;7391830;19;20147;-81
2022/04/24 05:31:22;;;;;;;0.30;0.30;;;10.50;99.90;;;;;;7392041;19;20150;-79
2022/04/24 05:33:48;;;;;;;0.27;0.27;;;10.50;99.90;;;;;;7391881;19;20646;-81
2022/04/24 05:36:14;;;;;;;0.90;0.30;;;10.20;99.90;;;;;;7395048;19;20134;-77
2022/04/24 05:38:40;;;;;;;1.37;0.30;;;10.50;99.90;;;;;;7394047;19;20146;-78
2022/04/24 05:41:06;;;;;;;5.83;0.63;;;10.50;99.90;;;;;;7398721;19;20146;-79
2022/04/24 05:43:31;;;;;;;0.37;0.37;;;10.50;99.90;;;;;;7393842;19;20161;-81
2022/04/24 05:45:57;;;;;;;2.30;0.40;;;10.40;99.90;;;;;;7396084;19;20227;-81
2022/04/24 05:48:24;;;;;;;0.40;0.30;;;10.40;99.90;;;;;;7393850;19;20265;-80
2022/04/24 05:50:50;;;;;;;3.80;0.60;;;10.50;99.90;;;;;;7393722;19;20591;-78
2022/04/24 05:53:16;;;;;;;0.33;0.30;;;10.40;99.90;;;;;;7393968;19;20142;-81
2022/04/24 05:55:42;;;;;;;1.13;0.50;;;10.50;99.90;;;;;;7401067;19;20130;-82
2022/04/24 05:58:07;;;;;;;0.70;0.30;;;10.50;99.90;;;;;;7397334;19;20130;-81
2022/04/24 06:00:33;;;;;;;0.97;0.50;;;10.40;99.90;;;;;;7395956;19;20131;-78
2022/04/24 06:03:00;;;;;;;0.40;0.30;;;10.20;99.90;;;;;;7396605;19;20143;-79
2022/04/24 06:05:26;;;;;;;1.17;0.30;;;10.40;99.90;;;;;;7400482;19;20138;-80
2022/04/24 06:07:52;;;;;;;0.93;0.60;;;10.20;99.90;;;;;;7392866;19;20509;-80
2022/04/24 06:10:18;;;;;;;1.93;0.53;;;10.30;99.90;;;;;;7392531;19;20130;-78
2022/04/24 06:12:51;;;;;;;1.77;0.40;;;10.30;99.90;;;;;;7392934;19;20500;-81
2022/04/24 06:15:20;;;;;;;1.07;0.60;;;10.40;99.90;;;;;;7394572;19;20135;-79
2022/04/24 06:17:47;;;;;;;4.80;0.57;;;10.20;99.90;;;;;;7395615;19;20227;-80
2022/04/24 06:20:13;;;;;;;1.23;0.40;;;10.20;99.90;;;;;;7396219;19;20582;-78
2022/04/24 06:22:49;;;;;;;0.53;0.40;;;10.10;99.90;;;;;;7396245;19;20135;-81
2022/04/24 06:25:19;;;;;;;2.97;0.53;;;10.00;99.90;;;;;;7394461;19;20593;-79
2022/04/24 06:27:46;;;;;;;0.60;0.40;;;10.20;99.90;;;;;;7398455;19;20146;-80
2022/04/24 06:30:13;;;;;;;1.33;0.50;;;10.30;99.90;;;;;;7390068;19;20193;-80
2022/04/24 06:32:41;;;;;;;2.47;0.40;;;10.40;99.90;;;;;;7394045;19;20136;-76
2022/04/24 06:35:11;;;;;;;2.10;0.43;;;10.20;99.90;;;;;;7393292;19;20146;-80
2022/04/24 06:37:38;;;;;;;1.27;0.40;;;10.30;99.90;;;;;;7392349;19;20143;-79
2022/04/24 06:40:09;;;;;;;3.47;0.70;;;10.20;99.90;;;;;;7392257;19;20488;-81
2022/04/24 06:42:46;;;;;;;5.60;0.70;;;10.30;99.90;;;;;;7395068;19;20484;-76
2022/04/24 06:45:11;;;;;;;1.60;0.57;;;10.40;99.90;;;;;;7390186;19;20166;-80
2022/04/24 06:47:37;;;;;;;1.77;0.50;;;10.40;99.90;;;;;;7397980;19;20114;-78
2022/04/24 06:50:03;;;;;;;2.00;0.47;;;10.30;99.90;;;;;;7405993;19;20133;-75
2022/04/24 06:52:29;;;;;;;1.33;0.40;;;10.30;99.90;;;;;;7392278;19;20127;-74
2022/04/24 06:54:55;;;;;;;4.10;0.40;;;10.50;99.90;;;;;;7392221;19;20723;-73
2022/04/24 06:57:20;;;;;;;0.80;0.30;;;10.60;99.90;;;;;;7391028;19;20576;-73
2022/04/24 06:59:46;;;;;;;3.33;0.30;;;10.60;99.90;;;;;;7392803;19;20155;-74
2022/04/24 07:02:12;;;;;;;1.60;0.43;;;10.70;99.90;;;;;;7388507;19;20131;-74
2022/04/24 07:04:38;;;;;;;0.43;0.20;;;10.60;99.90;;;;;;7393834;19;20539;-71
2022/04/24 07:07:04;;;;;;;1.33;0.27;;;10.70;99.90;;;;;;7391397;19;20159;-73
2022/04/24 07:09:29;;;;;;;0.43;0.20;;;10.70;99.90;;;;;;7390427;19;20134;-72
2022/04/24 07:11:56;;;;;;;1.47;0.20;;;10.80;99.90;;;;;;7388501;19;20150;-73
2022/04/24 07:14:22;;;;;;;1.47;0.23;;;10.80;99.90;;;;;;7392424;19;20168;-74
2022/04/24 07:16:48;;;;;;;0.43;0.27;;;10.70;99.90;;;;;;7391253;19;20915;-74
2022/04/24 07:19:14;;;;;;;0.50;0.20;;;10.70;99.90;;;;;;7390812;19;20180;-73
2022/04/24 07:21:40;;;;;;;1.07;0.33;;;10.80;99.90;;;;;;7393657;19;20162;-72
2022/04/24 07:24:06;;;;;;;2.57;1.07;;;10.80;99.90;;;;;;7391738;19;20143;-72
2022/04/24 07:26:31;;;;;;;0.63;0.40;;;10.80;99.90;;;;;;7397219;19;20135;-73
2022/04/24 07:28:57;;;;;;;0.20;0.20;;;10.90;99.90;;;;;;7391020;19;20613;-72
2022/04/24 07:31:23;;;;;;;0.20;0.20;;;11.00;99.90;;;;;;7391880;19;20152;-74
2022/04/24 07:33:49;;;;;;;4.27;0.80;;;10.60;99.90;;;;;;7392037;19;20158;-73
2022/04/24 07:36:15;;;;;;;0.30;0.30;;;10.70;99.90;;;;;;7391212;19;20139;-74
2022/04/24 07:38:42;;;;;;;0.20;0.20;;;10.80;99.90;;;;;;7391394;19;20162;-74
2022/04/24 07:41:07;;;;;;;0.93;0.40;;;10.90;99.90;;;;;;7393758;19;20590;-74
2022/04/24 07:43:33;;;;;;;0.80;0.37;;;11.00;99.90;;;;;;7390501;19;20142;-72
2022/04/24 07:45:59;;;;;;;0.77;0.37;;;11.00;99.90;;;;;;7390901;19;20214;-72
2022/04/24 07:48:25;;;;;;;0.47;0.13;;;11.10;99.90;;;;;;7390959;19;20138;-73
2022/04/24 07:50:52;;;;;;;0.37;0.30;;;11.10;99.90;;;;;;7390522;19;20143;-73
2022/04/24 07:53:20;;;;;;;0.20;0.20;;;10.90;99.90;;;;;;7390389;19;20139;-75
2022/04/24 07:55:48;;;;;;;1.23;0.40;;;10.90;99.90;;;;;;7391173;19;20138;-74
2022/04/24 07:58:15;;;;;;;1.57;0.47;;;11.00;99.90;;;;;;7391384;19;20186;-75
2022/04/24 08:00:41;;;;;;;1.10;0.40;;;10.90;99.90;;;;;;7386498;19;20142;-74
2022/04/24 08:03:12;;;;;;;0.60;0.50;;;11.00;99.90;;;;;;7391163;19;20602;-76
2022/04/24 08:05:40;;;;;;;0.30;0.30;;;11.00;99.90;;;;;;7394635;19;20135;-77
2022/04/24 08:08:10;;;;;;;0.70;0.43;;;11.00;99.90;;;;;;7399987;19;20170;-78
2022/04/24 08:10:38;;;;;;;0.73;0.50;;;10.90;99.90;;;;;;7392938;19;20395;-76
2022/04/24 08:13:05;;;;;;;0.43;0.30;;;10.90;99.90;;;;;;7390540;19;20150;-76
2022/04/24 08:15:34;;;;;;;1.67;0.70;;;11.00;99.90;;;;;;7389718;19;20138;-75
2022/04/24 08:18:01;;;;;;;0.50;0.50;;;11.00;99.90;;;;;;7388240;19;20142;-70
2022/04/24 08:20:36;;;;;;;0.50;0.40;;;11.00;99.90;;;;;;7421769;19;21019;-73
2022/04/24 08:23:03;;;;;;;0.97;0.60;;;11.10;99.90;;;;;;7422040;19;20122;-77
2022/04/24 08:25:33;;;;;;;0.83;0.37;;;11.20;99.90;;;;;;7424847;19;20201;-76
2022/04/24 08:27:59;;;;;;;0.97;0.40;;;11.20;99.90;;;;;;7427601;19;20133;-73
2022/04/24 08:30:25;;;;;;;1.13;0.50;;;11.20;99.90;;;;;;7424656;19;20953;-75
2022/04/24 08:32:51;;;;;;;0.90;0.50;;;11.20;99.90;;;;;;7428001;19;20266;-75
2022/04/24 08:35:19;;;;;;;0.50;0.50;;;11.10;99.90;;;;;;7421235;19;20130;-74
2022/04/24 08:37:45;;;;;;;1.20;0.50;;;11.10;99.90;;;;;;7424334;19;20145;-75
2022/04/24 08:40:13;;;;;;;1.47;0.50;;;11.30;99.90;;;;;;7422163;19;20140;-75
2022/04/24 08:42:40;;;;;;;1.00;0.47;;;11.30;99.90;;;;;;7424392;19;20234;-76
2022/04/24 08:45:10;;;;;;;2.73;0.50;;;11.20;99.90;;;;;;7424421;19;20138;-75
2022/04/24 08:47:36;;;;;;;1.03;0.77;;;11.40;99.90;;;;;;7423282;19;20493;-73
2022/04/24 08:50:04;;;;;;;0.70;0.50;;;11.30;99.90;;;;;;7427119;19;20543;-75
2022/04/24 08:52:31;;;;;;;0.40;0.40;;;11.40;99.90;;;;;;7426861;19;20555;-74
2022/04/24 08:54:59;;;;;;;1.77;0.50;;;11.50;99.90;;;;;;7423736;19;20159;-75
2022/04/24 08:57:30;;;;;;;0.80;0.80;;;11.50;99.90;;;;;;7420104;19;20149;-75
2022/04/24 08:59:57;;;;;;;0.60;0.60;;;11.50;99.90;;;;;;7416458;19;20165;-74
2022/04/24 09:02:23;;;;;;;0.50;0.50;;;11.40;99.90;;;;;;7422040;19;20142;-75
2022/04/24 09:04:49;;;;;;;0.40;0.40;;;11.50;99.90;;;;;;7423080;19;20568;-71
2022/04/24 09:07:18;;;;;;;3.37;0.83;;;11.50;99.90;;;;;;7421102;19;20494;-72
2022/04/24 09:09:49;;;;;;;1.07;0.77;;;11.60;99.90;;;;;;7421179;19;20205;-76
2022/04/24 09:12:18;;;;;;;0.73;0.45;;;11.60;99.90;;;;;;7425113;19;20393;-74
2022/04/24 09:14:48;;;;;;;1.13;0.50;;;11.60;99.90;;;;;;7431352;19;20126;-72
2022/04/24 09:17:20;;;;;;;1.80;0.40;;;11.60;99.90;;;;;;7421005;19;20609;-70
2022/04/24 09:19:46;;;;;;;4.20;1.00;;;11.60;99.90;;;;;;7420183;19;20161;-74
2022/04/24 09:22:14;;;;;;;3.10;0.90;;;11.70;99.90;;;;;;7422615;19;20138;-74
2022/04/24 09:24:45;;;;;;;1.47;0.67;;;11.60;99.90;;;;;;7422827;19;20197;-74
2022/04/24 09:27:12;;;;;;;3.50;0.80;;;11.60;99.90;;;;;;7420869;19;20158;-72
2022/04/24 09:29:51;;;;;;;0.50;0.40;;;11.70;99.90;;;;;;7422467;19;20157;-74
2022/04/24 09:32:16;;;;;;;0.97;0.67;;;11.70;99.90;;;;;;7391883;19;20146;-72
2022/04/24 09:34:42;;;;;;;1.13;0.80;;;11.70;99.90;;;;;;7393635;19;20145;-72
2022/04/24 09:37:09;;;;;;;1.80;0.63;;;11.70;99.90;;;;;;7399202;19;20594;-74
2022/04/24 09:39:37;;;;;;;0.60;0.50;;;11.70;99.90;;;;;;7402148;19;20180;-74
2022/04/24 09:42:11;;;;;;;1.83;0.93;;;11.70;99.90;;;;;;7400050;19;20139;-75
2022/04/24 09:44:37;;;;;;;1.37;0.60;;;11.60;99.90;;;;;;7394923;19;20632;-71
2022/04/24 09:47:05;;;;;;;3.10;0.93;;;11.70;99.90;;;;;;7391886;19;20510;-74
2022/04/24 09:49:37;;;;;;;0.83;0.60;;;11.80;99.90;;;;;;7394940;19;20143;-72
2022/04/24 09:52:07;;;;;;;4.93;0.80;;;11.80;99.90;;;;;;7391401;19;20210;-73
2022/04/24 09:54:45;;;;;;;5.60;0.90;;;11.80;99.90;;;;;;7393879;19;20150;-70
2022/04/24 09:57:13;;;;;;;2.23;0.80;;;11.80;99.90;;;;;;7391739;19;20197;-74
2022/04/24 09:59:41;;;;;;;1.00;0.60;;;11.80;99.90;;;;;;7397757;19;20159;-75
2022/04/24 10:02:08;;;;;;;2.57;0.87;;;11.90;99.90;;;;;;7401631;19;20199;-76
2022/04/24 10:04:36;;;;;;;2.43;0.60;;;11.90;99.90;;;;;;7394012;19;20143;-75
2022/04/24 10:07:13;;;;;;;1.27;0.70;;;11.80;99.90;;;;;;7391765;19;20744;-72
2022/04/24 10:09:42;;;;;;;1.80;0.70;;;11.80;99.90;;;;;;7394654;19;21204;-72
2022/04/24 10:12:15;;;;;;;1.93;0.83;;;11.80;99.90;;;;;;7392455;19;20138;-72
2022/04/24 10:14:58;;;;;;;2.30;0.80;;;11.90;99.90;;;;;;7394591;19;20139;-72
2022/04/24 10:17:48;;;;;;;5.50;1.03;;;12.00;99.90;;;;;;7392762;19;20605;-73
2022/04/24 10:20:18;;;;;;;1.87;0.97;;;12.00;99.90;;;;;;7404920;19;20158;-74
2022/04/24 10:22:47;;;;;;;2.63;0.90;;;12.00;99.90;;;;;;7397363;19;20268;-74
2022/04/24 10:25:17;;;;;;;3.33;0.80;;;11.90;99.90;;;;;;7391658;19;20169;-74
2022/04/24 10:27:45;;;;;;;4.87;1.10;;;11.90;99.90;;;;;;7388366;19;20139;-74
2022/04/24 10:30:19;;;;;;;2.37;0.97;;;12.00;99.90;;;;;;7389768;19;20178;-73
2022/04/24 10:32:48;;;;;;;2.13;0.90;;;12.00;99.90;;;;;;7392277;19;20142;-73
2022/04/24 10:35:19;;;;;;;2.07;1.00;;;11.90;99.90;;;;;;7391226;19;20139;-77
2022/04/24 10:37:47;;;;;;;5.20;1.57;;;12.00;99.90;;;;;;7392673;19;20554;-77
2022/04/24 10:40:18;;;;;;;4.67;0.70;;;12.00;99.90;;;;;;7394667;19;20146;-76
2022/04/24 10:42:46;;;;;;;1.47;0.70;;;11.90;99.90;;;;;;7412765;19;20181;-76
2022/04/24 10:45:16;;;;;;;1.17;0.80;;;11.80;99.90;;;;;;7392691;19;20590;-76
2022/04/24 10:47:48;;;;;;;2.30;1.00;;;12.00;99.90;;;;;;7390790;19;20141;-76
2022/04/24 10:50:18;;;;;;;2.33;0.63;;;12.00;99.90;;;;;;7391828;19;20141;-76
2022/04/24 10:52:46;;;;;;;0.90;0.60;;;12.00;99.90;;;;;;7391769;19;20138;-76
2022/04/24 10:55:19;;;;;;;2.60;0.97;;;12.10;99.90;;;;;;7390660;19;20184;-74
2022/04/24 10:57:50;;;;;;;1.67;0.60;;;12.10;99.90;;;;;;7390470;19;20499;-76
2022/04/24 11:00:22;;;;;;;1.73;0.80;;;12.00;99.90;;;;;;7388984;19;20150;-76
2022/04/24 11:02:49;;;;;;;0.87;0.80;;;12.10;99.90;;;;;;7393913;19;20138;-79
2022/04/24 11:05:23;;;;;;;0.73;0.53;;;12.10;99.90;;;;;;7401906;19;20155;-75
2022/04/24 11:08:03;;;;;;;0.60;0.60;;;12.00;99.90;;;;;;7393214;19;20145;-77
2022/04/24 11:10:28;;;;;;;0.70;0.60;;;11.80;99.90;;;;;;7389401;19;20146;-76
2022/04/24 11:12:55;;;;;;;0.60;0.60;;;11.80;99.90;;;;;;7392182;19;20170;-76
2022/04/24 11:15:21;;;;;;;2.13;1.13;;;11.90;99.90;;;;;;7390005;19;20146;-75
2022/04/24 11:17:47;;;;;;;0.97;0.80;;;12.00;99.90;;;;;;7387978;19;20169;-76
2022/04/24 11:20:18;;;;;;;1.23;0.70;;;11.90;99.90;;;;;;7387093;19;20614;-76
2022/04/24 11:22:55;;;;;;;0.60;0.57;;;11.90;99.90;;;;;;7389484;19;20150;-76
2022/04/24 11:25:24;;;;;;;2.60;0.90;;;11.90;99.90;;;;;;7391195;19;20154;-76
2022/04/24 11:27:52;;;;;;;1.43;0.60;;;11.80;99.90;;;;;;7395458;19;20202;-76
2022/04/24 11:30:23;;;;;;;0.87;0.70;;;12.00;99.90;;;;;;7387349;19;20165;-78
2022/04/24 11:32:59;;;;;;;1.87;0.80;;;12.00;99.90;;;;;;7386985;19;20158;-76
2022/04/24 11:35:27;;;;;;;1.33;0.60;;;12.00;99.90;;;;;;7388212;19;20465;-77
2022/04/24 11:37:55;;;;;;;1.10;0.50;;;12.00;99.90;;;;;;7387747;19;20673;-75
2022/04/24 11:40:22;;;;;;;1.80;0.90;;;12.20;99.90;;;;;;7386224;19;20131;-76
2022/04/24 11:42:48;;;;;;;0.87;0.60;;;12.20;99.90;;;;;;7389842;19;20142;-79
2022/04/24 11:50:53;;;;;;;0.70;0.47;;;12.20;99.90;;;;;;7388226;19;20150;-77
2022/04/24 11:53:23;;;;;;;0.80;0.60;;;12.10;99.90;;;;;;7387363;19;20142;-77
2022/04/24 11:56:01;;;;;;;1.10;0.63;;;12.10;99.90;;;;;;7387649;19;20169;-76
2022/04/24 11:58:35;;;;;;;1.13;0.70;;;12.10;99.90;;;;;;7387760;19;20247;-77
2022/04/24 12:01:07;;;;;;;1.77;0.77;;;12.30;99.90;;;;;;7383949;19;20153;-76
2022/04/24 12:03:34;;;;;;;1.47;0.50;;;12.30;99.90;;;;;;7393866;19;20163;-78
2022/04/24 12:06:06;;;;;;;3.57;1.20;;;12.20;99.90;;;;;;7395140;19;20139;-77
2022/04/24 12:08:49;;;;;;;3.07;0.87;;;12.30;99.90;;;;;;7390436;19;20178;-79
2022/04/24 12:11:27;;;;;;;1.10;0.60;;;12.10;99.90;;;;;;7390954;19;20625;-78
2022/04/24 12:14:10;;;;;;;4.13;0.77;;;12.30;99.90;;;;;;7387885;19;20184;-78
2022/04/24 12:16:38;;;;;;;0.93;0.60;;;12.30;99.90;;;;;;7388722;19;20189;-74
2022/04/24 12:19:03;;;;;;;2.40;0.70;;;12.20;99.90;;;;;;7383558;19;20369;-74
2022/04/24 12:21:31;;;;;;;1.10;0.70;;;12.40;99.90;;;;;;7386440;19;20133;-76
2022/04/24 12:23:58;;;;;;;1.60;0.60;;;12.30;99.90;;;;;;7394956;19;20594;-76
2022/04/24 12:26:25;;;;;;;0.70;0.60;;;12.30;99.90;;;;;;7391841;19;20139;-77
2022/04/24 12:28:51;;;;;;;1.90;0.53;;;12.30;99.90;;;;;;7384963;19;20553;-77
2022/04/24 12:31:27;;;;;;;2.20;0.90;;;12.10;99.90;;;;;;7384668;19;20137;-77
2022/04/24 12:33:57;;;;;;;0.87;0.70;;;12.20;99.90;;;;;;7385358;19;20762;-77
2022/04/24 12:36:24;;;;;;;0.60;0.50;;;12.30;99.90;;;;;;7386638;19;20143;-78
2022/04/24 12:39:06;;;;;;;0.97;0.50;;;12.20;99.90;;;;;;7385473;19;20583;-78
2022/04/24 12:41:33;;;;;;;1.38;0.65;;;12.40;99.90;;;;;;7385311;19;20158;-77
2022/04/24 12:44:01;;;;;;;0.60;0.50;;;12.50;99.90;;;;;;7385455;19;20158;-78
2022/04/24 12:46:27;;;;;;;3.50;0.60;;;12.40;99.90;;;;;;7384062;19;20198;-78
2022/04/24 12:48:54;;;;;;;4.00;0.97;;;12.50;99.90;;;;;;7392751;19;20138;-77
2022/04/24 12:51:23;;;;;;;6.13;1.07;;;12.50;99.90;;;;;;7390098;19;20875;-77